Time;durP1;ratioP1;P1;durP2;ratioP2;P2;SDS_P1;SDS_P2;PMS_P1;PMS_P2;Temp;Humidity;BMP_temperature;BMP_pressure;BME280_temperature;BME280_humidity;BME280_pressure;Samples;Min_cycle;Max_cycle;Signal;HPM_P1;HPM_P2
2023/05/10 00:01:07;;;;;;;;;;;12.30;99.90;;;;;;5118793;28;20290;-61
2023/05/10 00:03:33;;;;;;;;;;;12.30;99.90;;;;;;5119461;28;19908;-61
2023/05/10 00:05:59;;;;;;;;;;;12.30;99.90;;;;;;5118511;28;19907;-61
2023/05/10 00:08:25;;;;;;;;;;;12.30;99.90;;;;;;5119464;28;19929;-61
2023/05/10 00:10:50;;;;;;;;;;;12.30;99.90;;;;;;5119965;28;19931;-61
2023/05/10 00:13:16;;;;;;;;;;;12.30;99.90;;;;;;5119248;28;20374;-63
2023/05/10 00:15:41;;;;;;;;;;;12.30;99.90;;;;;;5119404;28;19926;-61
2023/05/10 00:18:07;;;;;;;;;;;12.30;99.90;;;;;;5119625;28;19911;-61
2023/05/10 00:20:33;;;;;;;;;;;12.30;99.90;;;;;;5119197;28;19907;-61
2023/05/10 00:22:58;;;;;;;;;;;12.30;99.90;;;;;;5118052;28;19954;-61
2023/05/10 00:25:24;;;;;;;;;;;12.20;99.90;;;;;;5119381;28;19908;-61
2023/05/10 00:27:50;;;;;;;;;;;12.20;99.90;;;;;;5119523;28;19927;-61
2023/05/10 00:30:16;;;;;;;;;;;12.20;99.90;;;;;;5119124;28;20370;-61
2023/05/10 00:32:41;;;;;;;;;;;12.20;99.90;;;;;;5119292;28;19914;-61
2023/05/10 00:35:07;;;;;;;;;;;12.20;99.90;;;;;;5118889;28;19908;-61
2023/05/10 00:37:33;;;;;;;;;;;12.10;99.90;;;;;;5118774;28;19957;-61
2023/05/10 00:39:59;;;;;;;;;;;12.20;99.90;;;;;;5119264;28;19994;-61
2023/05/10 00:42:24;;;;;;;;;;;12.20;99.90;;;;;;5118632;28;19957;-61
2023/05/10 00:44:50;;;;;;;;;;;12.20;99.90;;;;;;5119097;28;20325;-61
2023/05/10 00:47:16;;;;;;;;;;;12.20;99.90;;;;;;5119179;28;19953;-61
2023/05/10 00:49:42;;;;;;;;;;;12.20;99.90;;;;;;5117130;28;19908;-61
2023/05/10 00:52:08;;;;;;;;;;;12.20;99.90;;;;;;5118319;28;19908;-61
2023/05/10 00:54:34;;;;;;;;;;;12.20;99.90;;;;;;5118918;28;19915;-61
2023/05/10 00:57:00;;;;;;;;;;;12.20;99.90;;;;;;5118956;28;19908;-61
2023/05/10 00:59:25;;;;;;;;;;;12.20;99.90;;;;;;5118419;28;19919;-61
2023/05/10 01:01:51;;;;;;;;;;;12.20;99.90;;;;;;5118145;28;19915;-61
2023/05/10 01:04:17;;;;;;;;;;;12.20;99.90;;;;;;5118724;28;19961;-61
2023/05/10 01:06:43;;;;;;;;;;;12.20;99.90;;;;;;5118486;28;19912;-61
2023/05/10 01:09:08;;;;;;;;;;;12.20;99.90;;;;;;5118824;28;19914;-61
2023/05/10 01:11:35;;;;;;;;;;;12.20;99.90;;;;;;5118407;28;20002;-61
2023/05/10 01:14:01;;;;;;;;;;;12.20;99.90;;;;;;5117738;28;19995;-61
2023/05/10 01:16:29;;;;;;;;;;;12.10;99.90;;;;;;5118108;28;19915;-61
2023/05/10 01:18:55;;;;;;;;;;;12.20;99.90;;;;;;5118482;28;20347;-61
2023/05/10 01:21:29;;;;;;;;;;;12.20;99.90;;;;;;5118398;28;19994;-61
2023/05/10 01:24:20;;;;;;;;;;;12.20;99.90;;;;;;5118543;28;19912;-61
2023/05/10 01:27:05;;;;;;;;;;;12.20;99.90;;;;;;5114210;28;19931;-61
2023/05/10 01:29:36;;;;;;;;;;;12.20;99.90;;;;;;5118297;28;20290;-61
2023/05/10 01:32:02;;;;;;;;;;;12.20;99.90;;;;;;5118474;28;19908;-61
2023/05/10 01:34:32;;;;;;;;;;;12.30;99.90;;;;;;5118490;28;20025;-61
2023/05/10 01:37:15;;;;;;;;;;;12.30;99.90;;;;;;5117972;28;19991;-61
2023/05/10 01:39:49;;;;;;;;;;;12.30;99.90;;;;;;5117590;28;20383;-61
2023/05/10 01:42:21;;;;;;;;;;;12.30;99.90;;;;;;5118683;28;19916;-61
2023/05/10 01:44:57;;;;;;;;;;;12.30;99.90;;;;;;5118350;28;19908;-61
2023/05/10 01:47:30;;;;;;;;;;;12.30;99.90;;;;;;5118416;28;19908;-61
2023/05/10 01:49:59;;;;;;;;;;;12.30;99.90;;;;;;5118143;28;20011;-61
2023/05/10 01:52:32;;;;;;;;;;;12.30;99.90;;;;;;5118224;28;19908;-61
2023/05/10 01:55:17;;;;;;;;;;;12.30;99.90;;;;;;5118025;28;20374;-61
2023/05/10 01:57:44;;;;;;;;;;;12.30;99.90;;;;;;5117574;28;19907;-61
2023/05/10 02:00:11;;;;;;;;;;;12.30;99.90;;;;;;5118272;28;19908;-61
2023/05/10 02:02:37;;;;;;;;;;;12.20;99.90;;;;;;5118194;28;19927;-61
2023/05/10 02:05:05;;;;;;;;;;;12.20;99.90;;;;;;5118384;28;20374;-61
2023/05/10 02:07:31;;;;;;;;;;;12.30;99.90;;;;;;5117985;28;19964;-61
2023/05/10 02:09:58;;;;;;;;;;;12.30;99.90;;;;;;5118096;28;19908;-61
2023/05/10 02:12:24;;;;;;;;;;;12.30;99.90;;;;;;5117835;28;19911;-61
2023/05/10 02:14:50;;;;;;;;;;;12.20;99.90;;;;;;5117768;28;19930;-61
2023/05/10 02:17:16;;;;;;;;;;;12.20;99.90;;;;;;5116467;28;19934;-61
2023/05/10 02:19:43;;;;;;;;;;;12.30;99.90;;;;;;5117849;28;20378;-61
2023/05/10 02:22:09;;;;;;;;;;;12.30;99.90;;;;;;5118009;28;19907;-61
2023/05/10 02:24:36;;;;;;;;;;;12.40;99.90;;;;;;5116826;28;19964;-61
2023/05/10 02:27:03;;;;;;;;;;;12.30;99.90;;;;;;5117608;28;20324;-61
2023/05/10 02:29:29;;;;;;;;;;;12.40;99.90;;;;;;5120987;28;19953;-61
2023/05/10 02:31:55;;;;;;;;;;;12.40;99.90;;;;;;5121440;28;19907;-61
2023/05/10 02:34:21;;;;;;;;;;;12.50;99.90;;;;;;5121431;28;19914;-61
2023/05/10 02:36:48;;;;;;;;;;;12.60;99.90;;;;;;5120578;28;19911;-61
2023/05/10 02:39:14;;;;;;;;;;;12.70;99.90;;;;;;5120168;28;20358;-61
2023/05/10 02:41:40;;;;;;;;;;;12.70;99.90;;;;;;5121028;28;19920;-61
2023/05/10 02:44:07;;;;;;;;;;;12.80;99.90;;;;;;5121369;28;20274;-61
2023/05/10 02:46:33;;;;;;;;;;;12.80;99.90;;;;;;5121125;28;20362;-61
2023/05/10 02:48:59;;;;;;;;;;;12.80;99.90;;;;;;5121304;28;19914;-61
2023/05/10 02:51:27;;;;;;;;;;;12.80;99.90;;;;;;5121087;28;19942;-61
2023/05/10 02:53:53;;;;;;;;;;;12.90;99.90;;;;;;5121294;28;19908;-61
2023/05/10 02:56:23;;;;;;;;;;;12.90;99.90;;;;;;5121293;28;19909;-61
2023/05/10 02:58:49;;;;;;;;;;;12.90;99.90;;;;;;5121011;28;19977;-61
2023/05/10 03:01:15;;;;;;;;;;;12.90;99.90;;;;;;5120488;28;19921;-61
2023/05/10 03:03:41;;;;;;;;;;;12.80;99.90;;;;;;5120269;28;19915;-61
2023/05/10 03:06:06;;;;;;;;;;;12.90;99.90;;;;;;5120494;28;19912;-61
2023/05/10 03:08:32;;;;;;;;;;;12.80;99.90;;;;;;5120587;28;19908;-61
2023/05/10 03:11:16;;;;;;;;;;;12.80;99.90;;;;;;5120690;28;19907;-61
2023/05/10 03:14:01;;;;;;;;;;;12.80;99.90;;;;;;5119939;28;19962;-61
2023/05/10 03:16:34;;;;;;;;;;;12.80;99.90;;;;;;5120826;28;19908;-61
2023/05/10 03:19:14;;;;;;;;;;;12.70;99.90;;;;;;5118396;28;19911;-61
2023/05/10 03:21:44;;;;;;;;;;;12.70;99.90;;;;;;5118540;28;19908;-61
2023/05/10 03:24:11;;;;;;;;;;;12.60;99.90;;;;;;5118609;28;19915;-61
2023/05/10 03:26:38;;;;;;;;;;;12.60;99.90;;;;;;5120489;28;20056;-61
2023/05/10 03:29:05;;;;;;;;;;;12.50;99.90;;;;;;5120353;28;19915;-61
2023/05/10 03:31:30;;;;;;;;;;;12.50;99.90;;;;;;5120421;28;19908;-61
2023/05/10 03:33:56;;;;;;;;;;;12.50;99.90;;;;;;5120261;28;19915;-61
2023/05/10 03:36:22;;;;;;;;;;;12.60;99.90;;;;;;5120574;28;19914;-61
2023/05/10 03:38:47;;;;;;;;;;;12.60;99.90;;;;;;5120080;28;19996;-61
2023/05/10 03:41:13;;;;;;;;;;;12.50;99.90;;;;;;5120169;28;19957;-61
2023/05/10 03:43:39;;;;;;;;;;;12.50;99.90;;;;;;5120202;28;19960;-61
2023/05/10 03:46:05;;;;;;;;;;;12.40;99.90;;;;;;5119652;28;19908;-61
2023/05/10 03:48:31;;;;;;;;;;;12.40;99.90;;;;;;5101665;28;19907;-61
2023/05/10 03:50:57;;;;;;;;;;;12.30;99.90;;;;;;5119989;28;19919;-61
2023/05/10 03:53:23;;;;;;;;;;;12.30;99.90;;;;;;5119049;28;19908;-61
2023/05/10 03:55:48;;;;;;;;;;;12.30;99.90;;;;;;5119785;28;19915;-61
2023/05/10 03:58:14;;;;;;;;;;;12.20;99.90;;;;;;5119545;28;19911;-61
2023/05/10 04:00:43;;;;;;;;;;;12.20;99.90;;;;;;5119359;28;20248;-61
2023/05/10 04:03:09;;;;;;;;;;;12.20;99.90;;;;;;5119178;28;19991;-61
2023/05/10 04:05:35;;;;;;;;;;;12.20;99.90;;;;;;5118947;28;20379;-61
2023/05/10 04:08:01;;;;;;;;;;;12.20;99.90;;;;;;5119642;28;19930;-61
2023/05/10 04:10:27;;;;;;;;;;;12.20;99.90;;;;;;5119583;28;19958;-61
2023/05/10 04:12:52;;;;;;;;;;;12.20;99.90;;;;;;5119742;28;19908;-61
2023/05/10 04:15:18;;;;;;;;;;;12.20;99.90;;;;;;5119397;28;19920;-61
2023/05/10 04:17:43;;;;;;;;;;;12.20;99.90;;;;;;5119788;28;19960;-61
2023/05/10 04:20:10;;;;;;;;;;;12.30;99.90;;;;;;5119116;28;19961;-61
2023/05/10 04:22:35;;;;;;;;;;;12.30;99.90;;;;;;5119702;28;19976;-61
2023/05/10 04:25:01;;;;;;;;;;;12.40;99.90;;;;;;5119314;28;19908;-61
2023/05/10 04:27:26;;;;;;;;;;;12.30;99.90;;;;;;5119725;28;20293;-61
2023/05/10 04:29:52;;;;;;;;;;;12.40;99.90;;;;;;5119383;28;19908;-61
2023/05/10 04:32:20;;;;;;;;;;;12.40;99.90;;;;;;5119342;28;19991;-61
2023/05/10 04:34:45;;;;;;;;;;;12.40;99.90;;;;;;5119001;28;19915;-61
2023/05/10 04:37:11;;;;;;;;;;;12.30;99.90;;;;;;5119119;28;19912;-61
2023/05/10 04:39:37;;;;;;;;;;;12.30;99.90;;;;;;5118899;28;19954;-61
2023/05/10 04:42:02;;;;;;;;;;;12.30;99.90;;;;;;5118825;28;19999;-61
2023/05/10 04:44:29;;;;;;;;;;;12.30;99.90;;;;;;5119190;28;19956;-61
2023/05/10 04:46:55;;;;;;;;;;;12.20;99.90;;;;;;5118996;28;19947;-61
2023/05/10 04:49:20;;;;;;;;;;;12.20;99.90;;;;;;5118851;28;19908;-61
2023/05/10 04:51:46;;;;;;;;;;;12.20;99.90;;;;;;5118395;28;19907;-61
2023/05/10 04:54:12;;;;;;;;;;;12.20;99.90;;;;;;5118450;28;19908;-61
2023/05/10 04:56:37;;;;;;;;;;;12.20;99.90;;;;;;5118865;28;19911;-61
2023/05/10 04:59:03;;;;;;;;;;;12.20;99.90;;;;;;5118200;28;19920;-61
2023/05/10 05:01:28;;;;;;;;;;;12.10;99.90;;;;;;5118285;28;19951;-61
2023/05/10 05:03:54;;;;;;;;;;;12.20;99.90;;;;;;5118147;28;19908;-61
2023/05/10 05:06:24;;;;;;;;;;;12.10;99.90;;;;;;5118573;28;19948;-61
2023/05/10 05:08:50;;;;;;;;;;;12.20;99.90;;;;;;5118843;28;19914;-61
2023/05/10 05:11:16;;;;;;;;;;;12.20;99.90;;;;;;5118572;28;19951;-61
2023/05/10 05:13:42;;;;;;;;;;;12.30;99.90;;;;;;5118121;28;20014;-61
2023/05/10 05:16:07;;;;;;;;;;;12.30;99.90;;;;;;5118681;28;19908;-61
2023/05/10 05:18:33;;;;;;;;;;;12.30;99.90;;;;;;5118598;28;20369;-61
2023/05/10 05:20:59;;;;;;;;;;;12.40;99.90;;;;;;5123140;27;20640;-61
2023/05/10 05:23:24;;;;;;;;;;;12.50;99.90;;;;;;5139274;28;19908;-61
2023/05/10 05:25:53;;;;;;;;;;;12.50;99.90;;;;;;5138844;28;20323;-61
2023/05/10 05:28:19;;;;;;;;;;;12.60;99.90;;;;;;5139164;28;19907;-61
2023/05/10 05:30:45;;;;;;;;;;;12.70;99.90;;;;;;5138783;28;19908;-61
2023/05/10 05:33:11;;;;;;;;;;;12.70;99.90;;;;;;5139011;28;19914;-61
2023/05/10 05:35:37;;;;;;;;;;;12.80;99.90;;;;;;5138720;28;19908;-61
2023/05/10 05:38:06;;;;;;;;;;;12.80;99.90;;;;;;5138401;28;20385;-61
2023/05/10 05:40:31;;;;;;;;;;;12.80;99.90;;;;;;5102451;28;19912;-61
2023/05/10 05:42:57;;;;;;;;;;;12.90;99.90;;;;;;5097624;28;20003;-61
2023/05/10 05:45:22;;;;;;;;;;;12.90;99.90;;;;;;5098136;28;19909;-61
2023/05/10 05:47:48;;;;;;;;;;;13.00;99.90;;;;;;5097358;28;19915;-61
2023/05/10 05:50:14;;;;;;;;;;;13.00;99.90;;;;;;5097750;28;19908;-61
2023/05/10 05:52:40;;;;;;;;;;;13.00;99.90;;;;;;5097840;28;19998;-61
2023/05/10 05:55:05;;;;;;;;;;;13.00;99.90;;;;;;5096954;28;19958;-61
2023/05/10 05:57:31;;;;;;;;;;;13.00;99.90;;;;;;5097676;28;20002;-61
2023/05/10 05:59:57;;;;;;;;;;;13.00;99.90;;;;;;5097289;28;19966;-61
2023/05/10 06:02:22;;;;;;;;;;;13.00;99.90;;;;;;5097869;28;19915;-61
2023/05/10 06:04:48;;;;;;;;;;;13.00;99.90;;;;;;5100940;28;20386;-61
2023/05/10 06:07:15;;;;;;;;;;;13.00;99.90;;;;;;5101876;28;19912;-61
2023/05/10 06:09:41;;;;;;;;;;;13.00;99.90;;;;;;5101557;28;19916;-61
2023/05/10 06:12:06;;;;;;;;;;;13.10;99.90;;;;;;5101224;28;19912;-61
2023/05/10 06:14:32;;;;;;;;;;;13.10;99.90;;;;;;5100912;28;20015;-61
2023/05/10 06:16:59;;;;;;;;;;;13.20;99.90;;;;;;5100588;28;20355;-61
2023/05/10 06:19:34;;;;;;;;;;;13.20;99.90;;;;;;5100726;28;19912;-61
2023/05/10 06:22:00;;;;;;;;;;;13.20;99.90;;;;;;5100501;28;19915;-61
2023/05/10 06:24:26;;;;;;;;;;;13.30;99.90;;;;;;5101150;28;19908;-61
2023/05/10 06:26:52;;;;;;;;;;;13.30;99.90;;;;;;5100774;28;19915;-62
2023/05/10 06:29:18;;;;;;;;;;;13.30;99.90;;;;;;5100639;28;19908;-61
2023/05/10 06:31:44;;;;;;;;;;;13.40;99.90;;;;;;5139566;27;19911;-61
2023/05/10 06:34:11;;;;;;;;;;;13.40;99.90;;;;;;5142065;27;19907;-61
2023/05/10 06:36:37;;;;;;;;;;;13.40;99.90;;;;;;5141981;27;19973;-62
2023/05/10 06:39:03;;;;;;;;;;;13.30;99.90;;;;;;5141954;27;19915;-61
2023/05/10 06:41:31;;;;;;;;;;;13.30;99.90;;;;;;5141642;27;20331;-61
2023/05/10 06:44:00;;;;;;;;;;;13.30;99.90;;;;;;5141569;27;19914;-61
2023/05/10 06:46:26;;;;;;;;;;;13.30;99.90;;;;;;5141847;27;19907;-62
2023/05/10 06:48:52;;;;;;;;;;;13.30;99.90;;;;;;5141630;27;19913;-61
2023/05/10 06:51:18;;;;;;;;;;;13.30;99.90;;;;;;5141301;27;20373;-61
2023/05/10 06:53:43;;;;;;;;;;;13.40;99.90;;;;;;5141402;27;19954;-62
2023/05/10 06:56:09;;;;;;;;;;;13.50;99.90;;;;;;5141171;27;19908;-61
2023/05/10 06:58:36;;;;;;;;;;;13.50;99.90;;;;;;5141189;27;20333;-62
2023/05/10 07:01:02;;;;;;;;;;;13.60;99.90;;;;;;5141559;27;19915;-61
2023/05/10 07:03:28;;;;;;;;;;;13.60;99.90;;;;;;5141419;27;19914;-61
2023/05/10 07:05:55;;;;;;;;;;;13.60;99.90;;;;;;5141479;27;19907;-62
2023/05/10 07:08:20;;;;;;;;;;;13.70;99.90;;;;;;5141154;27;19974;-62
2023/05/10 07:10:46;;;;;;;;;;;13.70;99.90;;;;;;5141085;27;20434;-61
2023/05/10 07:13:12;;;;;;;;;;;13.80;99.90;;;;;;5141261;27;19907;-62
2023/05/10 07:15:38;;;;;;;;;;;13.90;99.90;;;;;;5140382;27;19919;-58
2023/05/10 07:18:05;;;;;;;;;;;13.90;99.90;;;;;;5140708;27;20006;-61
2023/05/10 07:20:31;;;;;;;;;;;14.00;99.90;;;;;;5139708;27;19914;-61
2023/05/10 07:22:56;;;;;;;;;;;14.10;99.90;;;;;;5140182;27;20336;-61
2023/05/10 07:25:22;;;;;;;;;;;14.10;99.90;;;;;;5140423;27;19907;-62
2023/05/10 07:27:48;;;;;;;;;;;14.10;99.90;;;;;;5139916;27;19911;-61
2023/05/10 07:30:14;;;;;;;;;;;14.20;99.90;;;;;;5140188;27;19907;-61
2023/05/10 07:32:41;;;;;;;;;;;14.30;99.90;;;;;;5140317;27;19995;-61
2023/05/10 07:35:07;;;;;;;;;;;14.40;99.90;;;;;;5140913;27;19915;-61
2023/05/10 07:37:33;;;;;;;;;;;14.50;99.90;;;;;;5140891;27;19916;-62
2023/05/10 07:39:58;;;;;;;;;;;14.60;99.90;;;;;;5140744;27;20042;-61
2023/05/10 07:42:24;;;;;;;;;;;14.70;99.90;;;;;;5140796;27;19907;-61
2023/05/10 07:44:50;;;;;;;;;;;14.70;99.90;;;;;;5140317;27;19964;-61
2023/05/10 07:47:16;;;;;;;;;;;14.70;99.90;;;;;;5140438;27;20290;-62
2023/05/10 07:49:42;;;;;;;;;;;14.80;99.90;;;;;;5140617;27;19907;-62
2023/05/10 07:52:07;;;;;;;;;;;14.90;99.90;;;;;;5140561;27;20365;-62
2023/05/10 07:54:33;;;;;;;;;;;14.90;99.90;;;;;;5140117;27;19908;-61
2023/05/10 07:56:59;;;;;;;;;;;14.80;99.90;;;;;;5140363;27;20447;-61
2023/05/10 07:59:25;;;;;;;;;;;14.80;99.90;;;;;;5140133;27;19947;-61
2023/05/10 08:01:51;;;;;;;;;;;14.90;99.90;;;;;;5139973;27;19907;-61
2023/05/10 08:04:16;;;;;;;;;;;15.00;99.90;;;;;;5140445;27;19908;-62
2023/05/10 08:06:42;;;;;;;;;;;15.00;99.90;;;;;;5140323;27;19907;-61
2023/05/10 08:09:08;;;;;;;;;;;15.20;99.90;;;;;;5140355;27;19907;-61
2023/05/10 08:11:33;;;;;;;;;;;15.20;99.90;;;;;;5139873;27;19955;-62
2023/05/10 08:13:59;;;;;;;;;;;15.20;99.90;;;;;;5139642;27;19923;-61
2023/05/10 08:16:25;;;;;;;;;;;15.30;99.90;;;;;;5139886;27;19908;-61
2023/05/10 08:18:50;;;;;;;;;;;15.50;99.90;;;;;;5140016;27;20259;-61
2023/05/10 08:21:18;;;;;;;;;;;15.70;99.90;;;;;;5139051;27;20180;-61
2023/05/10 08:23:44;;;;;;;;;;;15.80;99.90;;;;;;5139584;27;20331;-62
2023/05/10 08:26:09;;;;;;;;;;;15.90;99.90;;;;;;5138787;27;20285;-62
2023/05/10 08:28:35;;;;;;;;;;;15.90;99.90;;;;;;5139823;27;19907;-61
2023/05/10 08:31:00;;;;;;;;;;;16.00;99.90;;;;;;5139607;27;19908;-61
2023/05/10 08:33:26;;;;;;;;;;;15.90;99.90;;;;;;5139850;27;20385;-61
2023/05/10 08:35:52;;;;;;;;;;;15.70;99.90;;;;;;5139360;27;19914;-61
2023/05/10 08:38:17;;;;;;;;;;;15.60;99.90;;;;;;5139568;27;19912;-61
2023/05/10 08:40:44;;;;;;;;;;;15.50;99.90;;;;;;5140147;27;19911;-61
2023/05/10 08:43:10;;;;;;;;;;;15.40;99.90;;;;;;5139519;27;19907;-61
2023/05/10 08:45:41;;;;;;;;;;;15.40;99.90;;;;;;5139551;27;19908;-61
2023/05/10 08:48:07;;;;;;;;;;;15.30;99.90;;;;;;5139482;27;19914;-61
2023/05/10 08:50:35;;;;;;;;;;;15.10;99.90;;;;;;5139207;27;19912;-61
2023/05/10 08:53:03;;;;;;;;;;;15.10;99.90;;;;;;5139192;27;19907;-61
2023/05/10 08:55:29;;;;;;;;;;;15.20;99.90;;;;;;5139374;27;19907;-61
2023/05/10 08:57:54;;;;;;;;;;;15.30;99.90;;;;;;5139189;27;19915;-61
2023/05/10 09:00:22;;;;;;;;;;;15.40;99.90;;;;;;5139205;27;20361;-61
2023/05/10 09:02:49;;;;;;;;;;;15.50;99.90;;;;;;5139370;27;19914;-61
2023/05/10 09:05:15;;;;;;;;;;;15.60;99.90;;;;;;5139195;27;19908;-62
2023/05/10 09:07:41;;;;;;;;;;;15.80;99.90;;;;;;5139088;27;19907;-62
2023/05/10 09:10:08;;;;;;;;;;;16.00;99.90;;;;;;5139502;27;19918;-62
2023/05/10 09:12:34;;;;;;;;;;;16.20;99.90;;;;;;5139163;27;19908;-62
2023/05/10 09:15:00;;;;;;;;;;;16.20;99.90;;;;;;5138776;27;19926;-62
2023/05/10 09:17:27;;;;;;;;;;;16.40;99.90;;;;;;5138979;27;19936;-62
2023/05/10 09:20:03;;;;;;;;;;;16.40;99.90;;;;;;5138667;27;19911;-62
2023/05/10 09:22:32;;;;;;;;;;;16.50;99.90;;;;;;5138952;27;19960;-62
2023/05/10 09:25:08;;;;;;;;;;;16.70;99.90;;;;;;5138957;28;19996;-62
2023/05/10 09:27:34;;;;;;;;;;;16.70;99.90;;;;;;5139035;28;20384;-62
2023/05/10 09:30:00;;;;;;;;;;;16.60;99.90;;;;;;5138948;28;19965;-62
2023/05/10 09:32:44;;;;;;;;;;;16.70;99.90;;;;;;5138849;28;19907;-62
2023/05/10 09:35:10;;;;;;;;;;;16.80;99.90;;;;;;5139051;28;19999;-62
2023/05/10 09:37:36;;;;;;;;;;;16.70;99.90;;;;;;5140940;27;19908;-62
2023/05/10 09:40:07;;;;;;;;;;;16.90;99.90;;;;;;5142990;27;20425;-62
2023/05/10 09:42:33;;;;;;;;;;;16.90;99.90;;;;;;5142745;27;20335;-62
2023/05/10 09:45:05;;;;;;;;;;;16.70;99.90;;;;;;5143084;27;19960;-62
2023/05/10 09:47:34;;;;;;;;;;;16.70;99.90;;;;;;5142657;27;20312;-62
2023/05/10 09:50:03;;;;;;;;;;;16.80;99.90;;;;;;5143088;27;19907;-62
2023/05/10 09:52:30;;;;;;;;;;;17.00;99.90;;;;;;5142971;27;19908;-62
2023/05/10 09:54:56;;;;;;;;;;;16.90;99.90;;;;;;5142809;27;19907;-62
2023/05/10 09:57:22;;;;;;;;;;;17.30;99.90;;;;;;5142778;27;19914;-62
2023/05/10 09:59:47;;;;;;;;;;;17.40;99.90;;;;;;5142796;27;19915;-62
2023/05/10 10:02:13;;;;;;;;;;;17.40;99.90;;;;;;5142684;27;19991;-62
2023/05/10 10:04:39;;;;;;;;;;;17.20;99.90;;;;;;5142592;27;19952;-62
2023/05/10 10:07:05;;;;;;;;;;;17.00;99.90;;;;;;5142700;27;19915;-62
2023/05/10 10:09:31;;;;;;;;;;;16.80;99.90;;;;;;5142243;27;19908;-62
2023/05/10 10:11:57;;;;;;;;;;;16.80;99.90;;;;;;5142841;27;19915;-62
2023/05/10 10:14:26;;;;;;;;;;;17.90;99.90;;;;;;5142136;27;19999;-62
2023/05/10 10:16:52;;;;;;;;;;;18.90;99.90;;;;;;5142294;27;19954;-62
2023/05/10 10:19:19;;;;;;;;;;;19.00;99.90;;;;;;5141969;27;19915;-62
2023/05/10 10:21:44;;;;;;;;;;;18.90;99.90;;;;;;5142140;27;19912;-62
2023/05/10 10:24:10;;;;;;;;;;;18.90;99.90;;;;;;5142464;27;19907;-62
2023/05/10 10:26:38;;;;;;;;;;;18.60;99.90;;;;;;5142024;27;19908;-62
2023/05/10 10:29:03;;;;;;;;;;;18.40;99.90;;;;;;5141763;27;19938;-62
2023/05/10 10:31:36;;;;;;;;;;;18.60;99.90;;;;;;5142116;27;20311;-62
2023/05/10 10:34:20;;;;;;;;;;;19.50;99.90;;;;;;5142234;27;20006;-62
2023/05/10 10:36:46;;;;;;;;;;;19.30;99.90;;;;;;5142282;27;19990;-62
2023/05/10 10:39:13;;;;;;;;;;;19.00;99.90;;;;;;5141809;27;19911;-62
2023/05/10 10:41:44;;;;;;;;;;;18.80;99.90;;;;;;5142172;27;19975;-62
2023/05/10 10:44:22;;;;;;;;;;;19.80;99.90;;;;;;5141374;27;19914;-62
2023/05/10 10:47:01;;;;;;;;;;;20.50;99.90;;;;;;5141851;27;19911;-62
2023/05/10 10:49:26;;;;;;;;;;;20.70;99.90;;;;;;5141168;27;20305;-62
2023/05/10 10:52:12;;;;;;;;;;;20.50;99.90;;;;;;5141630;27;19907;-62
2023/05/10 10:54:38;;;;;;;;;;;20.10;99.90;;;;;;5140887;27;19911;-62
2023/05/10 10:57:13;;;;;;;;;;;20.00;99.90;;;;;;5141645;27;19908;-62
2023/05/10 10:59:45;;;;;;;;;;;19.70;99.90;;;;;;5141682;27;20335;-62
2023/05/10 11:02:30;;;;;;;;;;;19.30;99.90;;;;;;5141465;27;20381;-62
2023/05/10 11:04:56;;;;;;;;;;;18.50;99.90;;;;;;5141235;27;19939;-62
2023/05/10 11:07:22;;;;;;;;;;;18.10;99.90;;;;;;5141700;27;19915;-62
2023/05/10 11:09:48;;;;;;;;;;;17.90;99.90;;;;;;5141425;27;19980;-62
2023/05/10 11:12:14;;;;;;;;;;;17.70;99.90;;;;;;5141377;27;20382;-62
2023/05/10 11:14:39;;;;;;;;;;;17.60;99.90;;;;;;5122584;27;19955;-62
2023/05/10 11:17:24;;;;;;;;;;;17.40;99.90;;;;;;5141618;27;19943;-62
2023/05/10 11:20:09;;;;;;;;;;;17.00;99.90;;;;;;5140758;27;19920;-62
2023/05/10 11:22:51;;;;;;;;;;;16.90;99.90;;;;;;5141262;27;19907;-62
2023/05/10 11:25:17;;;;;;;;;;;16.70;99.90;;;;;;5140981;27;19956;-62
2023/05/10 11:27:42;;;;;;;;;;;16.60;99.90;;;;;;5141214;27;19908;-62
2023/05/10 11:30:11;;;;;;;;;;;16.70;99.90;;;;;;5140795;27;19928;-62
2023/05/10 11:32:40;;;;;;;;;;;17.00;99.90;;;;;;5140692;27;19907;-62
2023/05/10 11:35:08;;;;;;;;;;;17.40;99.90;;;;;;5140676;27;19908;-58
2023/05/10 11:37:34;;;;;;;;;;;17.90;99.90;;;;;;5140754;27;19916;-57
2023/05/10 11:40:00;;;;;;;;;;;18.40;99.90;;;;;;5140833;27;20366;-61
2023/05/10 11:42:27;;;;;;;;;;;18.60;99.90;;;;;;5140889;27;19915;-62
2023/05/10 11:44:53;;;;;;;;;;;18.60;99.90;;;;;;5140806;27;20414;-62
2023/05/10 11:47:18;;;;;;;;;;;18.60;99.90;;;;;;5140970;27;19998;-62
2023/05/10 11:49:44;;;;;;;;;;;18.60;99.90;;;;;;5140991;27;20334;-62
2023/05/10 11:52:13;;;;;;;;;;;18.80;99.90;;;;;;5140522;27;19915;-62
2023/05/10 11:55:05;;;;;;;;;;;19.30;99.90;;;;;;5140821;27;19908;-62
2023/05/10 11:57:31;;;;;;;;;;;20.20;99.90;;;;;;5135455;27;19908;-62
2023/05/10 11:59:57;;;;;;;;;;;20.50;99.90;;;;;;5140351;27;19912;-62
2023/05/10 12:02:23;;;;;;;;;;;20.30;99.90;;;;;;5140490;27;19914;-62
2023/05/10 12:04:49;;;;;;;;;;;19.90;98.90;;;;;;5140151;27;19907;-62
2023/05/10 12:07:14;;;;;;;;;;;19.20;99.50;;;;;;5140573;27;19918;-62
2023/05/10 12:09:44;;;;;;;;;;;18.60;99.90;;;;;;5140137;27;19951;-62
2023/05/10 12:12:10;;;;;;;;;;;18.30;99.90;;;;;;5140272;27;19939;-62
2023/05/10 12:14:36;;;;;;;;;;;18.60;99.90;;;;;;5139997;27;19927;-62
2023/05/10 12:17:01;;;;;;;;;;;18.80;99.90;;;;;;5140140;27;19954;-62
2023/05/10 12:19:27;;;;;;;;;;;19.20;99.90;;;;;;5104415;28;19916;-62
2023/05/10 12:21:53;;;;;;;;;;;19.60;99.90;;;;;;5118437;28;19908;-62
2023/05/10 12:24:19;;;;;;;;;;;19.60;99.90;;;;;;5107304;28;19957;-62
2023/05/10 12:26:48;;;;;;;;;;;19.20;97.90;;;;;;5098894;28;19908;-62
2023/05/10 12:29:15;;;;;;;;;;;19.40;99.90;;;;;;5098525;28;20410;-62
2023/05/10 12:31:55;;;;;;;;;;;19.20;99.10;;;;;;5098597;28;19909;-62
2023/05/10 12:34:29;;;;;;;;;;;18.90;99.90;;;;;;5098673;28;19916;-62
2023/05/10 12:36:55;;;;;;;;;;;18.70;99.00;;;;;;5098776;28;19957;-62
2023/05/10 12:39:21;;;;;;;;;;;18.80;99.90;;;;;;5098528;28;19916;-62
2023/05/10 12:41:47;;;;;;;;;;;19.00;99.90;;;;;;5098485;28;19961;-62
2023/05/10 12:44:13;;;;;;;;;;;19.20;99.90;;;;;;5098760;28;19919;-62
2023/05/10 12:46:38;;;;;;;;;;;19.40;99.90;;;;;;5098560;28;19912;-62
2023/05/10 12:49:04;;;;;;;;;;;19.40;98.30;;;;;;5098390;28;19912;-62
2023/05/10 12:51:30;;;;;;;;;;;19.00;99.90;;;;;;5098425;28;20444;-62
2023/05/10 12:53:56;;;;;;;;;;;19.10;99.00;;;;;;5098003;28;19912;-62
2023/05/10 12:56:21;;;;;;;;;;;19.20;96.40;;;;;;5098445;28;19998;-62
2023/05/10 12:58:47;;;;;;;;;;;19.20;99.40;;;;;;5098216;28;20387;-62
2023/05/10 13:01:13;;;;;;;;;;;19.20;99.90;;;;;;5098177;28;19931;-62
2023/05/10 13:03:39;;;;;;;;;;;19.50;99.90;;;;;;5098132;28;19908;-62
2023/05/10 13:06:06;;;;;;;;;;;20.00;99.90;;;;;;5098461;28;19908;-62
2023/05/10 13:08:33;;;;;;;;;;;20.60;99.90;;;;;;5098280;28;19908;-62
2023/05/10 13:10:59;;;;;;;;;;;21.20;94.90;;;;;;5098021;28;19929;-63
2023/05/10 13:13:25;;;;;;;;;;;21.30;86.20;;;;;;5097487;28;19987;-62
2023/05/10 13:15:50;;;;;;;;;;;21.20;97.80;;;;;;5096665;28;19922;-62
2023/05/10 13:18:16;;;;;;;;;;;21.00;91.10;;;;;;5096963;28;19914;-62
2023/05/10 13:20:44;;;;;;;;;;;21.10;90.30;;;;;;5096983;28;19947;-62
2023/05/10 13:23:09;;;;;;;;;;;21.10;94.30;;;;;;5097946;28;19908;-62
2023/05/10 13:25:35;;;;;;;;;;;20.90;85.80;;;;;;5097880;28;19972;-62
2023/05/10 13:28:01;;;;;;;;;;;20.70;78.60;;;;;;5097997;28;19924;-62
2023/05/10 13:30:27;;;;;;;;;;;20.40;92.70;;;;;;5098290;28;19943;-62
2023/05/10 13:32:52;;;;;;;;;;;20.30;92.40;;;;;;5098334;28;19908;-62
2023/05/10 13:35:18;;;;;;;;;;;20.20;94.80;;;;;;5097855;28;19946;-62
2023/05/10 13:37:43;;;;;;;;;;;19.90;89.70;;;;;;5098308;28;20580;-62
2023/05/10 13:40:09;;;;;;;;;;;19.60;93.10;;;;;;5097785;28;19912;-62
2023/05/10 13:42:35;;;;;;;;;;;19.20;94.80;;;;;;5096895;28;19909;-62
2023/05/10 13:45:01;;;;;;;;;;;18.80;92.40;;;;;;5098033;28;19909;-62
2023/05/10 13:47:27;;;;;;;;;;;18.50;95.90;;;;;;5097936;28;19908;-62
2023/05/10 13:49:53;;;;;;;;;;;18.30;93.70;;;;;;5098170;28;19957;-62
2023/05/10 13:52:19;;;;;;;;;;;18.30;97.70;;;;;;5097909;28;19960;-62
2023/05/10 13:54:44;;;;;;;;;;;18.30;99.20;;;;;;5097924;28;19915;-62
2023/05/10 13:57:13;;;;;;;;;;;18.60;99.80;;;;;;5097671;28;19908;-62
2023/05/10 13:59:39;;;;;;;;;;;18.70;98.60;;;;;;5097710;28;19912;-62
2023/05/10 14:02:05;;;;;;;;;;;18.60;99.20;;;;;;5097855;28;19954;-62
2023/05/10 14:04:31;;;;;;;;;;;18.70;99.30;;;;;;5097556;28;19908;-62
2023/05/10 14:06:57;;;;;;;;;;;18.70;98.30;;;;;;5097848;28;19908;-62
2023/05/10 14:09:22;;;;;;;;;;;19.00;98.60;;;;;;5097571;28;20282;-62
2023/05/10 14:11:48;;;;;;;;;;;19.40;99.90;;;;;;5097778;28;19913;-62
2023/05/10 14:14:14;;;;;;;;;;;19.10;95.80;;;;;;5097243;28;20402;-62
2023/05/10 14:16:43;;;;;;;;;;;19.00;95.20;;;;;;5097424;28;19931;-62